Time;durP1;ratioP1;P1;durP2;ratioP2;P2;SDS_P1;SDS_P2;PMS_P1;PMS_P2;Temp;Humidity;BMP_temperature;BMP_pressure;BME280_temperature;BME280_humidity;BME280_pressure;Samples;Min_cycle;Max_cycle;Signal;HPM_P1;HPM_P2
2021/08/24 00:00:54;;;;;;;11.48;8.35;;;;;;;;;;4998563;28;20045;-91
2021/08/24 00:03:21;;;;;;;9.25;7.90;;;;;;;;;;4999078;28;20049;-91
2021/08/24 00:05:47;;;;;;;9.75;7.45;;;;;;;;;;4998163;28;20049;-91
2021/08/24 00:08:13;;;;;;;13.43;7.82;;;;;;;;;;4999305;28;20061;-91
2021/08/24 00:10:42;;;;;;;11.50;7.03;;;;;;;;;;4998661;28;20049;-91
2021/08/24 00:13:08;;;;;;;10.48;6.07;;;;;;;;;;4999333;28;20468;-90
2021/08/24 00:15:35;;;;;;;9.80;7.30;;;;;;;;;;4994445;28;20045;-91
2021/08/24 00:18:01;;;;;;;9.20;6.55;;;;;;;;;;5010364;28;20138;-91
2021/08/24 00:20:31;;;;;;;10.02;6.53;;;;;;;;;;4998858;28;20579;-90
2021/08/24 00:23:01;;;;;;;8.55;6.38;;;;;;;;;;4997618;28;20120;-91
2021/08/24 00:25:27;;;;;;;8.50;6.95;;;;;;;;;;4998835;28;20045;-90
2021/08/24 00:27:53;;;;;;;10.18;6.85;;;;;;;;;;5014753;28;20049;-91
2021/08/24 00:30:19;;;;;;;10.68;7.43;;;;;;;;;;5014940;28;20455;-90
2021/08/24 00:32:45;;;;;;;10.15;7.85;;;;;;;;;;5014702;28;20053;-91
2021/08/24 00:35:11;;;;;;;12.70;8.25;;;;;;;;;;4999126;28;20046;-91
2021/08/24 00:37:37;;;;;;;14.02;7.63;;;;;;;;;;5014586;28;20419;-90
2021/08/24 00:40:04;;;;;;;11.57;7.10;;;;;;;;;;4998875;28;20367;-91
2021/08/24 00:42:30;;;;;;;10.20;6.90;;;;;;;;;;4995081;28;20054;-90
2021/08/24 00:44:56;;;;;;;12.38;7.93;;;;;;;;;;4995663;28;20054;-91
2021/08/24 00:47:26;;;;;;;12.45;8.25;;;;;;;;;;4995474;28;20056;-92
2021/08/24 00:49:53;;;;;;;11.85;8.02;;;;;;;;;;5010723;28;20097;-91
2021/08/24 00:52:24;;;;;;;10.65;7.88;;;;;;;;;;4995352;28;20056;-91
2021/08/24 00:54:50;;;;;;;9.32;7.30;;;;;;;;;;4995045;28;20108;-90
2021/08/24 00:57:20;;;;;;;10.02;7.47;;;;;;;;;;5011621;28;20468;-90
2021/08/24 00:59:47;;;;;;;13.20;7.80;;;;;;;;;;4995163;28;20056;-90
2021/08/24 01:02:17;;;;;;;11.30;7.40;;;;;;;;;;4991991;28;20503;-91
2021/08/24 01:04:43;;;;;;;10.13;7.38;;;;;;;;;;4992337;28;20065;-91
2021/08/24 01:07:16;;;;;;;11.27;7.78;;;;;;;;;;4998612;28;20505;-91
2021/08/24 01:09:46;;;;;;;10.63;7.55;;;;;;;;;;4997297;28;20049;-91
2021/08/24 01:12:13;;;;;;;11.55;8.15;;;;;;;;;;4997188;28;20106;-90
2021/08/24 01:14:58;;;;;;;11.00;7.80;;;;;;;;;;4996312;28;20512;-91
2021/08/24 01:17:29;;;;;;;11.20;8.40;;;;;;;;;;4996161;28;20596;-91
2021/08/24 01:20:12;;;;;;;9.93;7.47;;;;;;;;;;5013096;28;20144;-89
2021/08/24 01:22:39;;;;;;;9.95;8.48;;;;;;;;;;5011267;28;20069;-91
2021/08/24 01:25:14;;;;;;;11.27;8.18;;;;;;;;;;5013232;28;20093;-91
2021/08/24 01:27:40;;;;;;;10.75;8.25;;;;;;;;;;4994510;28;20100;-90
2021/08/24 01:30:16;;;;;;;10.35;8.30;;;;;;;;;;4995558;28;20042;-91
2021/08/24 01:32:51;;;;;;;12.27;8.13;;;;;;;;;;5011766;28;20046;-91
2021/08/24 01:35:19;;;;;;;10.88;7.93;;;;;;;;;;4996295;28;20443;-90
2021/08/24 01:37:49;;;;;;;11.38;7.68;;;;;;;;;;4995249;28;20486;-91
2021/08/24 01:40:17;;;;;;;9.95;6.95;;;;;;;;;;4995857;28;20046;-91
2021/08/24 01:42:44;;;;;;;12.10;7.57;;;;;;;;;;4994933;28;20192;-91
2021/08/24 01:45:14;;;;;;;11.18;7.57;;;;;;;;;;5012449;28;20406;-90
2021/08/24 01:47:43;;;;;;;10.43;7.38;;;;;;;;;;4991755;28;20037;-90
2021/08/24 01:50:21;;;;;;;10.05;7.00;;;;;;;;;;5011785;28;20064;-90
2021/08/24 01:53:02;;;;;;;14.07;8.05;;;;;;;;;;5011402;28;20077;-91
2021/08/24 01:55:31;;;;;;;10.07;6.68;;;;;;;;;;5012369;28;20057;-91
2021/08/24 01:57:59;;;;;;;11.20;7.22;;;;;;;;;;5011971;28;20096;-90
2021/08/24 02:00:26;;;;;;;10.43;7.38;;;;;;;;;;4996197;28;20049;-90
2021/08/24 02:02:56;;;;;;;10.82;7.78;;;;;;;;;;4993755;28;20049;-90
2021/08/24 02:05:31;;;;;;;8.57;6.90;;;;;;;;;;4996502;28;20383;-90
2021/08/24 02:08:01;;;;;;;8.70;7.07;;;;;;;;;;5011647;28;20042;-90
2021/08/24 02:10:28;;;;;;;12.68;8.35;;;;;;;;;;4996012;28;20095;-91
2021/08/24 02:12:55;;;;;;;10.95;7.60;;;;;;;;;;5011253;28;20045;-90
2021/08/24 02:15:47;;;;;;;11.57;7.15;;;;;;;;;;5011462;28;20038;-91
2021/08/24 02:18:16;;;;;;;12.05;7.65;;;;;;;;;;4991452;28;20567;-91
2021/08/24 02:20:44;;;;;;;13.77;7.90;;;;;;;;;;5011397;28;20398;-91
2021/08/24 02:23:14;;;;;;;12.27;8.38;;;;;;;;;;5010429;28;20162;-91
2021/08/24 02:25:42;;;;;;;12.75;8.05;;;;;;;;;;4995202;28;20077;-90
2021/08/24 02:28:16;;;;;;;11.35;7.70;;;;;;;;;;4994780;28;20479;-91
2021/08/24 02:30:48;;;;;;;9.73;6.30;;;;;;;;;;4995136;28;20096;-91
2021/08/24 02:33:14;;;;;;;9.65;7.25;;;;;;;;;;5012080;28;20054;-91
2021/08/24 02:35:43;;;;;;;10.63;7.78;;;;;;;;;;5011880;28;20041;-90
2021/08/24 02:38:14;;;;;;;10.23;6.70;;;;;;;;;;5012499;28;20038;-91
2021/08/24 02:40:56;;;;;;;7.88;6.93;;;;;;;;;;4995450;28;20482;-91
2021/08/24 02:43:22;;;;;;;8.95;7.00;;;;;;;;;;5011688;28;20137;-91
2021/08/24 02:45:53;;;;;;;10.73;7.35;;;;;;;;;;4994716;28;20038;-91
2021/08/24 02:48:20;;;;;;;9.60;6.88;;;;;;;;;;5011884;28;20498;-92
2021/08/24 02:50:46;;;;;;;9.38;7.13;;;;;;;;;;5011093;28;20072;-92
2021/08/24 02:53:14;;;;;;;9.55;7.70;;;;;;;;;;5027785;28;20049;-90
2021/08/24 02:55:41;;;;;;;10.05;7.43;;;;;;;;;;5010821;28;20520;-90
2021/08/24 02:58:07;;;;;;;11.40;6.88;;;;;;;;;;4994938;28;20049;-90
2021/08/24 03:00:33;;;;;;;10.90;7.53;;;;;;;;;;4993705;28;20359;-90
2021/08/24 03:02:59;;;;;;;9.30;6.70;;;;;;;;;;4993937;28;20069;-91
2021/08/24 03:05:25;;;;;;;12.23;7.53;;;;;;;;;;5011210;28;20057;-91
2021/08/24 03:07:51;;;;;;;10.00;6.68;;;;;;;;;;4994238;28;20494;-92
2021/08/24 03:10:19;;;;;;;10.43;7.03;;;;;;;;;;4994641;28;20050;-91
2021/08/24 03:13:04;;;;;;;10.90;7.10;;;;;;;;;;5009906;28;20054;-91
2021/08/24 03:15:36;;;;;;;11.10;6.60;;;;;;;;;;5010679;28;20049;-90
2021/08/24 03:18:05;;;;;;;8.90;6.90;;;;;;;;;;5010609;28;20132;-90
2021/08/24 03:20:41;;;;;;;11.48;6.65;;;;;;;;;;4994391;28;20064;-89
2021/08/24 03:23:08;;;;;;;9.27;6.63;;;;;;;;;;5008826;28;20980;-91
2021/08/24 03:25:34;;;;;;;10.35;6.70;;;;;;;;;;4993398;28;20064;-90
2021/08/24 03:28:00;;;;;;;9.32;6.18;;;;;;;;;;5027113;28;20454;-90
2021/08/24 03:30:27;;;;;;;9.07;6.70;;;;;;;;;;4994728;28;20138;-90
2021/08/24 03:32:53;;;;;;;8.48;5.88;;;;;;;;;;5009901;28;20042;-91
2021/08/24 03:35:20;;;;;;;8.48;5.78;;;;;;;;;;4994031;28;20510;-91
2021/08/24 03:37:47;;;;;;;9.88;6.38;;;;;;;;;;4993487;28;20138;-90
2021/08/24 03:40:14;;;;;;;10.85;6.65;;;;;;;;;;5043662;28;20050;-90
2021/08/24 03:42:40;;;;;;;10.52;7.45;;;;;;;;;;5009413;28;20057;-91
2021/08/24 03:45:07;;;;;;;8.95;6.07;;;;;;;;;;5010675;28;20050;-90
2021/08/24 03:47:33;;;;;;;8.90;6.35;;;;;;;;;;5010231;28;20046;-90
2021/08/24 03:49:59;;;;;;;10.05;6.38;;;;;;;;;;4993406;28;20482;-91
2021/08/24 03:52:26;;;;;;;9.32;6.07;;;;;;;;;;5010397;28;20041;-91
2021/08/24 03:54:52;;;;;;;7.57;5.68;;;;;;;;;;4992683;28;20038;-91
2021/08/24 03:57:18;;;;;;;8.43;6.68;;;;;;;;;;5009807;28;20037;-91
2021/08/24 03:59:44;;;;;;;7.75;5.80;;;;;;;;;;4992423;28;20042;-90
2021/08/24 04:02:10;;;;;;;11.77;6.20;;;;;;;;;;4993087;28;20111;-91
2021/08/24 04:04:36;;;;;;;9.73;6.80;;;;;;;;;;4993370;28;20060;-90
2021/08/24 04:07:03;;;;;;;8.25;5.97;;;;;;;;;;5009615;28;20050;-91
2021/08/24 04:09:29;;;;;;;8.73;6.38;;;;;;;;;;4993383;28;20084;-90
2021/08/24 04:11:55;;;;;;;10.05;6.13;;;;;;;;;;4992697;28;20149;-90
2021/08/24 04:14:21;;;;;;;10.48;6.45;;;;;;;;;;5026134;28;20056;-90
2021/08/24 04:16:48;;;;;;;7.28;5.68;;;;;;;;;;4992248;28;20080;-90
2021/08/24 04:19:14;;;;;;;8.82;5.50;;;;;;;;;;5010130;28;20567;-90
2021/08/24 04:21:41;;;;;;;7.15;4.50;;;;;;;;;;5008514;28;20123;-90
2021/08/24 04:24:08;;;;;;;11.05;5.95;;;;;;;;;;5007632;28;20050;-90
2021/08/24 04:26:34;;;;;;;7.40;5.38;;;;;;;;;;4992416;28;20107;-90
2021/08/24 04:29:00;;;;;;;8.95;5.80;;;;;;;;;;4993205;28;20121;-91
2021/08/24 04:31:30;;;;;;;6.28;5.00;;;;;;;;;;4993894;28;20068;-91
2021/08/24 04:33:56;;;;;;;7.90;5.80;;;;;;;;;;4992539;28;20505;-91
2021/08/24 04:36:22;;;;;;;8.23;5.53;;;;;;;;;;4991574;28;20050;-91
2021/08/24 04:38:48;;;;;;;6.93;5.85;;;;;;;;;;4992639;28;20044;-91
2021/08/24 04:41:15;;;;;;;8.40;4.85;;;;;;;;;;4993440;28;20054;-91
2021/08/24 04:43:41;;;;;;;6.20;4.90;;;;;;;;;;5008006;28;20049;-90
2021/08/24 04:46:07;;;;;;;6.47;5.05;;;;;;;;;;4991873;28;20054;-89
2021/08/24 04:48:33;;;;;;;7.35;5.60;;;;;;;;;;4991636;28;20501;-88
2021/08/24 04:51:00;;;;;;;8.32;5.57;;;;;;;;;;5008020;28;20496;-89
2021/08/24 04:53:29;;;;;;;9.27;5.80;;;;;;;;;;4992294;28;20034;-89
2021/08/24 04:55:55;;;;;;;6.85;5.20;;;;;;;;;;5040204;28;20551;-89
2021/08/24 04:58:21;;;;;;;6.93;5.28;;;;;;;;;;4992329;28;20172;-90
2021/08/24 05:00:47;;;;;;;7.78;6.25;;;;;;;;;;5007773;28;20492;-90
2021/08/24 05:03:14;;;;;;;9.93;6.15;;;;;;;;;;4992079;28;20046;-90
2021/08/24 05:05:40;;;;;;;9.63;5.85;;;;;;;;;;5007938;28;20064;-89
2021/08/24 05:08:06;;;;;;;7.78;4.82;;;;;;;;;;4992867;28;20459;-89
2021/08/24 05:10:32;;;;;;;6.90;6.10;;;;;;;;;;5007199;28;20046;-89
2021/08/24 05:13:00;;;;;;;8.32;6.90;;;;;;;;;;5008464;28;20048;-90
2021/08/24 05:15:26;;;;;;;11.65;7.80;;;;;;;;;;4992275;28;20406;-89
2021/08/24 05:17:53;;;;;;;12.43;7.72;;;;;;;;;;5008050;28;20065;-88
2021/08/24 05:20:19;;;;;;;8.60;6.68;;;;;;;;;;5010606;28;20336;-93
2021/08/24 05:22:45;;;;;;;8.13;6.50;;;;;;;;;;4992326;28;20038;-93
2021/08/24 05:25:13;;;;;;;11.52;8.57;;;;;;;;;;4994088;28;20470;-92
2021/08/24 05:27:39;;;;;;;11.15;8.45;;;;;;;;;;5009901;28;20085;-93
2021/08/24 05:30:07;;;;;;;10.32;7.93;;;;;;;;;;5010564;28;20065;-93
2021/08/24 05:32:33;;;;;;;11.05;8.30;;;;;;;;;;4994481;28;20053;-93
2021/08/24 05:34:59;;;;;;;10.43;8.30;;;;;;;;;;4994306;28;20486;-94
2021/08/24 05:37:25;;;;;;;9.88;8.23;;;;;;;;;;4994183;28;20056;-93
2021/08/24 05:39:52;;;;;;;10.55;8.05;;;;;;;;;;5009525;28;20034;-92
2021/08/24 05:42:18;;;;;;;10.98;8.05;;;;;;;;;;4996563;28;20092;-93
2021/08/24 05:44:44;;;;;;;9.98;7.55;;;;;;;;;;4998295;28;20062;-92
2021/08/24 05:47:10;;;;;;;10.65;7.57;;;;;;;;;;5013895;28;20057;-94
2021/08/24 05:49:36;;;;;;;9.80;8.05;;;;;;;;;;4998266;28;20508;-90
2021/08/24 05:52:03;;;;;;;9.20;7.15;;;;;;;;;;5000253;28;20045;-91
2021/08/24 05:54:29;;;;;;;10.05;7.40;;;;;;;;;;5000029;28;20042;-90
2021/08/24 05:56:55;;;;;;;10.35;7.25;;;;;;;;;;5015752;28;20127;-91
2021/08/24 05:59:22;;;;;;;8.60;6.30;;;;;;;;;;5016415;28;20045;-91
2021/08/24 06:01:48;;;;;;;10.93;7.03;;;;;;;;;;4999368;28;20045;-93
2021/08/24 06:04:14;;;;;;;7.93;7.05;;;;;;;;;;5017599;28;20041;-95
2021/08/24 06:06:41;;;;;;;11.70;7.13;;;;;;;;;;5000487;28;20495;-95
2021/08/24 06:09:09;;;;;;;8.18;6.53;;;;;;;;;;5000863;28;20045;-95
2021/08/24 06:11:39;;;;;;;9.10;5.95;;;;;;;;;;5001382;28;20050;-94
2021/08/24 06:14:06;;;;;;;8.13;6.50;;;;;;;;;;5033168;28;20049;-93
2021/08/24 06:16:34;;;;;;;8.05;5.85;;;;;;;;;;5016787;28;20045;-91
2021/08/24 06:19:00;;;;;;;9.02;6.30;;;;;;;;;;5017504;28;20107;-96
2021/08/24 06:21:26;;;;;;;6.55;5.50;;;;;;;;;;5016232;28;20117;-95
2021/08/24 06:23:52;;;;;;;11.10;6.15;;;;;;;;;;5016371;28;20130;-95
2021/08/24 06:26:19;;;;;;;7.00;5.78;;;;;;;;;;5016661;28;20065;-95
2021/08/24 06:28:45;;;;;;;8.93;6.00;;;;;;;;;;5017043;28;20042;-96
2021/08/24 06:31:14;;;;;;;8.10;5.50;;;;;;;;;;5017185;28;20045;-95
2021/08/24 06:33:40;;;;;;;6.07;4.63;;;;;;;;;;5000519;28;20086;-94
2021/08/24 06:36:07;;;;;;;5.45;4.50;;;;;;;;;;5017842;28;20037;-95
2021/08/24 06:38:33;;;;;;;5.72;4.45;;;;;;;;;;5001294;28;20045;-93
2021/08/24 06:41:00;;;;;;;5.90;4.40;;;;;;;;;;5000197;28;20489;-94
2021/08/24 06:43:27;;;;;;;7.93;4.38;;;;;;;;;;5016155;28;20128;-95
2021/08/24 06:45:53;;;;;;;6.22;3.83;;;;;;;;;;4997597;28;20292;-94
2021/08/24 06:48:19;;;;;;;6.45;3.90;;;;;;;;;;4998271;28;20128;-94
2021/08/24 06:50:46;;;;;;;6.78;3.90;;;;;;;;;;5016118;28;20161;-95
2021/08/24 06:53:12;;;;;;;8.68;4.20;;;;;;;;;;5000353;28;20045;-94
2021/08/24 06:55:38;;;;;;;5.47;3.33;;;;;;;;;;4999782;28;20042;-94
2021/08/24 06:58:05;;;;;;;8.40;3.75;;;;;;;;;;5000006;28;20132;-94
2021/08/24 07:00:31;;;;;;;6.93;3.20;;;;;;;;;;5000156;28;20099;-94
2021/08/24 07:02:58;;;;;;;3.60;2.97;;;;;;;;;;5015945;28;20042;-95
2021/08/24 07:05:26;;;;;;;4.47;2.70;;;;;;;;;;4999168;28;20045;-95
2021/08/24 07:07:52;;;;;;;5.40;3.13;;;;;;;;;;5000010;28;20108;-93
2021/08/24 07:10:19;;;;;;;5.60;3.00;;;;;;;;;;5017065;28;20046;-94
2021/08/24 07:12:45;;;;;;;6.65;2.80;;;;;;;;;;4999750;28;20046;-96
2021/08/24 07:15:13;;;;;;;6.03;2.80;;;;;;;;;;5001048;28;20044;-95
2021/08/24 07:17:39;;;;;;;6.13;2.67;;;;;;;;;;4999806;28;20041;-95
2021/08/24 07:20:06;;;;;;;5.10;2.60;;;;;;;;;;4998313;28;20046;-95
2021/08/24 07:22:32;;;;;;;2.85;2.47;;;;;;;;;;4999125;28;20041;-94
2021/08/24 07:25:00;;;;;;;5.78;2.90;;;;;;;;;;4999861;28;20049;-95
2021/08/24 07:27:26;;;;;;;4.03;2.60;;;;;;;;;;5016577;28;20044;-95
2021/08/24 07:29:52;;;;;;;5.60;2.70;;;;;;;;;;4998839;28;20049;-94
2021/08/24 07:32:18;;;;;;;3.88;2.80;;;;;;;;;;5000329;28;20045;-94
2021/08/24 07:34:45;;;;;;;5.35;2.47;;;;;;;;;;5000590;28;20045;-95
2021/08/24 07:37:11;;;;;;;5.18;2.30;;;;;;;;;;5016702;28;20041;-95
2021/08/24 07:39:38;;;;;;;5.82;2.30;;;;;;;;;;4999790;28;20042;-93
2021/08/24 07:42:04;;;;;;;5.32;2.20;;;;;;;;;;5017395;28;20056;-94
2021/08/24 07:44:33;;;;;;;4.18;2.50;;;;;;;;;;5000222;28;20398;-93
2021/08/24 07:47:00;;;;;;;4.80;2.40;;;;;;;;;;5016714;28;21691;-95
2021/08/24 07:49:26;;;;;;;7.75;2.95;;;;;;;;;;5000537;28;20041;-95
2021/08/24 07:51:55;;;;;;;7.38;2.90;;;;;;;;;;4999503;28;20046;-94
2021/08/24 07:54:22;;;;;;;4.95;2.50;;;;;;;;;;4999420;28;20124;-95
2021/08/24 07:56:48;;;;;;;5.65;2.60;;;;;;;;;;4999162;28;20424;-93
2021/08/24 07:59:14;;;;;;;4.25;2.28;;;;;;;;;;5015501;28;20053;-94
2021/08/24 08:01:40;;;;;;;4.45;2.45;;;;;;;;;;4999546;28;20064;-93
2021/08/24 08:04:06;;;;;;;6.13;2.63;;;;;;;;;;4999578;28;20049;-94
2021/08/24 08:06:32;;;;;;;8.05;3.17;;;;;;;;;;4998354;28;20064;-94
2021/08/24 08:08:58;;;;;;;4.45;2.40;;;;;;;;;;4998501;28;20152;-92
2021/08/24 08:11:25;;;;;;;4.07;2.20;;;;;;;;;;4999085;28;20088;-94
2021/08/24 08:13:51;;;;;;;3.03;2.03;;;;;;;;;;4998092;28;20048;-94
2021/08/24 08:16:18;;;;;;;3.17;1.90;;;;;;;;;;5015887;28;20049;-95
2021/08/24 08:18:44;;;;;;;5.40;2.08;;;;;;;;;;5031352;28;20489;-94
2021/08/24 08:21:11;;;;;;;2.60;1.80;;;;;;;;;;4999284;28;20049;-94
2021/08/24 08:23:37;;;;;;;3.85;1.80;;;;;;;;;;4998011;28;20045;-93
2021/08/24 08:26:03;;;;;;;3.05;1.95;;;;;;;;;;5015646;28;20049;-94
2021/08/24 08:28:29;;;;;;;3.50;1.92;;;;;;;;;;5015976;28;20068;-93
2021/08/24 08:30:55;;;;;;;3.75;1.73;;;;;;;;;;4998323;28;20072;-94
2021/08/24 08:33:21;;;;;;;3.15;1.83;;;;;;;;;;4999436;28;20045;-93
2021/08/24 08:35:47;;;;;;;4.15;1.90;;;;;;;;;;5014190;28;20076;-94
2021/08/24 08:38:13;;;;;;;5.93;2.17;;;;;;;;;;5027988;28;20071;-94
2021/08/24 08:40:49;;;;;;;6.30;2.08;;;;;;;;;;4998778;28;21851;-93
2021/08/24 08:43:23;;;;;;;4.28;2.80;;;;;;;;;;5012946;28;20223;-94
2021/08/24 08:45:51;;;;;;;2.97;2.03;;;;;;;;;;5014062;28;20092;-93
2021/08/24 08:48:24;;;;;;;3.95;2.40;;;;;;;;;;5015039;28;20077;-93
2021/08/24 08:51:10;;;;;;;6.40;2.30;;;;;;;;;;5000449;28;20092;-94
2021/08/24 08:53:36;;;;;;;4.05;2.42;;;;;;;;;;5013280;28;20545;-93
2021/08/24 08:56:06;;;;;;;5.13;2.75;;;;;;;;;;4997173;28;20049;-95
2021/08/24 08:58:32;;;;;;;4.70;2.05;;;;;;;;;;5001299;28;20049;-93
2021/08/24 09:01:02;;;;;;;3.75;2.30;;;;;;;;;;5000591;28;20103;-94
2021/08/24 09:03:41;;;;;;;4.05;2.33;;;;;;;;;;4998319;28;20053;-94
2021/08/24 09:06:07;;;;;;;5.80;2.60;;;;;;;;;;5015031;28;20044;-94
2021/08/24 09:08:34;;;;;;;4.18;2.30;;;;;;;;;;4994620;28;20100;-93
2021/08/24 09:11:00;;;;;;;3.47;2.40;;;;;;;;;;4997331;28;20053;-93
2021/08/24 09:13:39;;;;;;;4.90;2.70;;;;;;;;;;4999083;28;20037;-93
2021/08/24 09:16:10;;;;;;;3.95;2.78;;;;;;;;;;5003049;28;20045;-93
2021/08/24 09:18:42;;;;;;;3.95;2.72;;;;;;;;;;5014978;28;20077;-94
2021/08/24 09:21:10;;;;;;;4.20;2.85;;;;;;;;;;5014097;28;20115;-93
2021/08/24 09:23:36;;;;;;;6.30;2.60;;;;;;;;;;5012411;28;20041;-92
2021/08/24 09:26:16;;;;;;;4.43;2.10;;;;;;;;;;5000751;28;20068;-92
2021/08/24 09:28:43;;;;;;;5.65;2.60;;;;;;;;;;5001735;28;20428;-92
2021/08/24 09:31:12;;;;;;;5.65;2.60;;;;;;;;;;5001479;28;20041;-92
2021/08/24 09:33:38;;;;;;;3.72;2.28;;;;;;;;;;4998365;28;20041;-93
2021/08/24 09:36:04;;;;;;;5.55;2.38;;;;;;;;;;5002007;28;20132;-94
2021/08/24 09:38:44;;;;;;;4.57;2.28;;;;;;;;;;5018535;28;20049;-93
2021/08/24 09:41:28;;;;;;;5.10;2.60;;;;;;;;;;5002685;28;20049;-94
2021/08/24 09:43:56;;;;;;;3.75;2.42;;;;;;;;;;5011551;28;20062;-94
2021/08/24 09:46:22;;;;;;;4.57;2.67;;;;;;;;;;4999761;28;20057;-95
2021/08/24 09:48:51;;;;;;;4.90;2.47;;;;;;;;;;5015144;28;20050;-93
2021/08/24 09:51:29;;;;;;;4.10;2.30;;;;;;;;;;5016147;28;20050;-94
2021/08/24 09:53:59;;;;;;;4.00;2.60;;;;;;;;;;5015773;28;20056;-94
2021/08/24 09:56:26;;;;;;;3.78;2.28;;;;;;;;;;5004121;28;20076;-94
2021/08/24 09:58:52;;;;;;;3.97;2.45;;;;;;;;;;4995339;28;20050;-93
2021/08/24 10:01:19;;;;;;;7.10;2.60;;;;;;;;;;4989919;28;20053;-94
2021/08/24 10:03:46;;;;;;;4.50;2.45;;;;;;;;;;4998617;28;20125;-93
2021/08/24 10:06:21;;;;;;;4.75;2.50;;;;;;;;;;4996198;28;20050;-93
2021/08/24 10:08:54;;;;;;;3.95;2.45;;;;;;;;;;5003275;28;20100;-94
2021/08/24 10:11:28;;;;;;;4.80;2.33;;;;;;;;;;4998427;28;20048;-92
2021/08/24 10:14:08;;;;;;;5.68;2.55;;;;;;;;;;4994357;28;20049;-93
2021/08/24 10:16:34;;;;;;;6.68;2.78;;;;;;;;;;5037098;28;20137;-92
2021/08/24 10:19:09;;;;;;;6.15;2.50;;;;;;;;;;4997682;28;20073;-95
2021/08/24 10:21:37;;;;;;;4.82;2.45;;;;;;;;;;5026853;28;20034;-95
2021/08/24 10:24:03;;;;;;;5.32;2.67;;;;;;;;;;5008171;28;20041;-95
2021/08/24 10:26:33;;;;;;;4.03;2.60;;;;;;;;;;4999190;28;20042;-94
2021/08/24 10:29:01;;;;;;;4.47;2.63;;;;;;;;;;4996863;28;20046;-96
2021/08/24 10:31:33;;;;;;;7.00;2.72;;;;;;;;;;5030918;28;20049;-96
2021/08/24 10:33:59;;;;;;;5.93;2.60;;;;;;;;;;5013167;28;20619;-94
2021/08/24 10:36:28;;;;;;;4.95;2.40;;;;;;;;;;4997732;28;20046;-95
2021/08/24 10:38:56;;;;;;;6.15;2.38;;;;;;;;;;4996589;28;20041;-96
2021/08/24 10:41:24;;;;;;;5.25;2.50;;;;;;;;;;4997471;28;20046;-96
2021/08/24 10:43:52;;;;;;;3.83;2.20;;;;;;;;;;4994051;28;20066;-93
2021/08/24 10:46:19;;;;;;;3.60;2.20;;;;;;;;;;4989749;28;20050;-93
2021/08/24 10:48:48;;;;;;;4.35;2.38;;;;;;;;;;5014490;28;20050;-94
2021/08/24 10:51:20;;;;;;;5.05;2.40;;;;;;;;;;4998452;28;20405;-95
2021/08/24 10:54:01;;;;;;;4.18;2.40;;;;;;;;;;5013922;28;20050;-95
2021/08/24 10:57:00;;;;;;;5.32;2.63;;;;;;;;;;4998398;28;20041;-93
2021/08/24 10:59:34;;;;;;;4.88;2.47;;;;;;;;;;4958222;28;20085;-94
2021/08/24 11:02:11;;;;;;;4.23;2.70;;;;;;;;;;4997983;28;20120;-95
2021/08/24 11:04:37;;;;;;;5.75;2.33;;;;;;;;;;4998616;28;20053;-95
2021/08/24 11:07:30;;;;;;;7.13;2.65;;;;;;;;;;4998091;28;20057;-95
2021/08/24 11:10:10;;;;;;;4.00;2.50;;;;;;;;;;4997776;28;20053;-94
2021/08/24 11:12:56;;;;;;;4.95;2.65;;;;;;;;;;4998103;28;20049;-95
2021/08/24 11:15:42;;;;;;;4.78;2.58;;;;;;;;;;4997743;28;20041;-94
2021/08/24 11:18:26;;;;;;;4.88;2.40;;;;;;;;;;4997773;28;20054;-95
2021/08/24 11:21:11;;;;;;;5.20;2.90;;;;;;;;;;4997149;28;20142;-93
2021/08/24 11:23:56;;;;;;;4.25;2.80;;;;;;;;;;4993438;28;20057;-93
2021/08/24 11:26:41;;;;;;;5.07;2.40;;;;;;;;;;5005457;28;20053;-95
2021/08/24 11:29:39;;;;;;;4.22;2.50;;;;;;;;;;4997956;28;20049;-94
2021/08/24 11:32:11;;;;;;;4.72;2.50;;;;;;;;;;4978604;28;20171;-94
2021/08/24 11:34:40;;;;;;;3.65;2.70;;;;;;;;;;4997952;28;20056;-94
2021/08/24 11:37:08;;;;;;;7.13;3.40;;;;;;;;;;4997536;28;20052;-94
2021/08/24 11:39:40;;;;;;;5.93;2.65;;;;;;;;;;4997788;28;20402;-94
2021/08/24 11:42:07;;;;;;;5.07;2.90;;;;;;;;;;4998392;28;20498;-94
2021/08/24 11:44:39;;;;;;;5.13;2.47;;;;;;;;;;5017487;28;20065;-94
2021/08/24 11:47:12;;;;;;;3.47;2.53;;;;;;;;;;5016210;28;20053;-93
2021/08/24 11:49:48;;;;;;;5.13;2.60;;;;;;;;;;5016874;28;20136;-94
2021/08/24 11:52:23;;;;;;;4.75;2.45;;;;;;;;;;5017234;28;20335;-94
2021/08/24 11:55:08;;;;;;;4.90;2.70;;;;;;;;;;5015922;28;20099;-94
2021/08/24 11:58:04;;;;;;;5.00;2.72;;;;;;;;;;4996789;28;20060;-95
2021/08/24 12:00:30;;;;;;;6.30;2.72;;;;;;;;;;4962571;28;20113;-94
2021/08/24 12:02:57;;;;;;;5.20;2.60;;;;;;;;;;4996183;28;20037;-95
2021/08/24 12:05:24;;;;;;;7.30;2.80;;;;;;;;;;5013426;28;20050;-94
2021/08/24 12:07:56;;;;;;;4.65;2.53;;;;;;;;;;5012900;28;20042;-94
2021/08/24 12:10:31;;;;;;;4.38;2.67;;;;;;;;;;5013455;28;20496;-94
2021/08/24 12:13:06;;;;;;;3.75;2.60;;;;;;;;;;5012750;28;20434;-95
2021/08/24 12:15:32;;;;;;;4.38;2.63;;;;;;;;;;4997276;28;20046;-94
2021/08/24 12:18:05;;;;;;;3.85;2.45;;;;;;;;;;4980775;28;20045;-95
2021/08/24 12:20:37;;;;;;;5.80;2.60;;;;;;;;;;4980783;28;20053;-95
2021/08/24 12:23:04;;;;;;;5.13;2.50;;;;;;;;;;5016670;28;20120;-94
2021/08/24 12:25:31;;;;;;;6.15;3.88;;;;;;;;;;4999715;28;20059;-94
2021/08/24 12:28:02;;;;;;;4.60;2.83;;;;;;;;;;4999794;28;20049;-93
2021/08/24 12:30:29;;;;;;;3.30;2.30;;;;;;;;;;5000543;28;20053;-93
2021/08/24 12:32:55;;;;;;;3.95;2.50;;;;;;;;;;4999082;28;20054;-94
2021/08/24 12:35:38;;;;;;;3.58;2.78;;;;;;;;;;4999611;28;20057;-94
2021/08/24 12:38:04;;;;;;;4.68;2.40;;;;;;;;;;4996207;28;20065;-93
2021/08/24 12:40:39;;;;;;;3.97;2.50;;;;;;;;;;4996431;28;20093;-94
2021/08/24 12:43:23;;;;;;;4.85;2.35;;;;;;;;;;5010565;28;20072;-93
2021/08/24 12:46:09;;;;;;;6.78;2.60;;;;;;;;;;4999041;28;20049;-92
2021/08/24 12:48:36;;;;;;;5.63;2.55;;;;;;;;;;5016421;28;20068;-93
2021/08/24 12:51:03;;;;;;;5.43;2.70;;;;;;;;;;5015507;28;20045;-92
2021/08/24 12:53:29;;;;;;;3.28;2.28;;;;;;;;;;5016118;28;20056;-93
2021/08/24 12:56:00;;;;;;;5.13;2.50;;;;;;;;;;4998592;28;20061;-93
2021/08/24 12:58:32;;;;;;;5.38;3.10;;;;;;;;;;4999954;28;20117;-93
2021/08/24 13:01:13;;;;;;;5.35;2.63;;;;;;;;;;5003238;28;20045;-94
2021/08/24 13:03:52;;;;;;;5.88;2.92;;;;;;;;;;5003608;28;20098;-94
2021/08/24 13:06:18;;;;;;;3.45;2.20;;;;;;;;;;5003667;28;20398;-93
2021/08/24 13:08:45;;;;;;;4.15;2.58;;;;;;;;;;5002605;28;20049;-91
2021/08/24 13:11:30;;;;;;;4.60;2.50;;;;;;;;;;5003321;28;20045;-94
2021/08/24 13:13:57;;;;;;;3.78;2.30;;;;;;;;;;5016622;28;20172;-93
2021/08/24 13:16:31;;;;;;;4.10;2.15;;;;;;;;;;5002191;28;20123;-89
2021/08/24 13:18:58;;;;;;;5.43;2.40;;;;;;;;;;4999039;28;20045;-94
2021/08/24 13:21:24;;;;;;;2.75;2.20;;;;;;;;;;5049523;28;20053;-94
2021/08/24 13:23:53;;;;;;;5.50;2.50;;;;;;;;;;5017594;28;20071;-92
2021/08/24 13:26:28;;;;;;;4.82;2.50;;;;;;;;;;5019038;28;20045;-91
2021/08/24 13:28:56;;;;;;;4.45;2.85;;;;;;;;;;4998612;28;20042;-95
2021/08/24 13:31:26;;;;;;;3.88;2.38;;;;;;;;;;4983367;28;20081;-93
2021/08/24 13:33:57;;;;;;;3.47;2.30;;;;;;;;;;4996364;28;20045;-92
2021/08/24 13:36:30;;;;;;;5.25;2.90;;;;;;;;;;5018830;28;20053;-92
2021/08/24 13:38:58;;;;;;;4.97;2.70;;;;;;;;;;5003573;28;20060;-92
2021/08/24 13:41:24;;;;;;;4.60;2.30;;;;;;;;;;5002540;28;20053;-95
2021/08/24 13:43:54;;;;;;;3.53;2.38;;;;;;;;;;5001519;28;20071;-92
2021/08/24 13:46:25;;;;;;;4.50;2.33;;;;;;;;;;4999346;28;20060;-93
2021/08/24 13:48:51;;;;;;;5.47;2.33;;;;;;;;;;4982131;28;20379;-94
2021/08/24 13:51:17;;;;;;;3.38;2.30;;;;;;;;;;5016406;28;20510;-92
2021/08/24 13:53:55;;;;;;;4.82;2.30;;;;;;;;;;5001778;28;20041;-89
2021/08/24 13:56:35;;;;;;;4.45;2.53;;;;;;;;;;5018143;28;20084;-94
2021/08/24 13:59:01;;;;;;;4.82;2.40;;;;;;;;;;5001750;28;20052;-93
2021/08/24 14:01:31;;;;;;;4.72;2.30;;;;;;;;;;5004655;28;20056;-92
2021/08/24 14:04:06;;;;;;;4.97;2.45;;;;;;;;;;4997693;28;20045;-94
2021/08/24 14:06:40;;;;;;;5.55;2.63;;;;;;;;;;4999459;28;20049;-94
2021/08/24 14:09:19;;;;;;;4.47;2.23;;;;;;;;;;4982005;28;20108;-92
2021/08/24 14:11:50;;;;;;;3.40;2.00;;;;;;;;;;4993679;28;20484;-89
2021/08/24 14:14:49;;;;;;;3.38;2.15;;;;;;;;;;4998446;28;20080;-93
2021/08/24 14:17:27;;;;;;;4.60;2.35;;;;;;;;;;4979526;28;20056;-90
2021/08/24 14:19:54;;;;;;;5.07;2.20;;;;;;;;;;5008795;28;20068;-92
2021/08/24 14:22:21;;;;;;;5.32;2.50;;;;;;;;;;4993742;28;20049;-92
2021/08/24 14:24:47;;;;;;;5.35;2.58;;;;;;;;;;4990538;28;20047;-91
2021/08/24 14:27:15;;;;;;;5.63;2.83;;;;;;;;;;4993258;28;20061;-91
2021/08/24 14:29:42;;;;;;;31.65;5.80;;;;;;;;;;4993448;28;20057;-92
2021/08/24 14:32:11;;;;;;;5.15;2.88;;;;;;;;;;4987872;28;20053;-92
2021/08/24 14:34:40;;;;;;;5.53;2.50;;;;;;;;;;5007012;28;20072;-90
2021/08/24 14:37:21;;;;;;;4.65;2.60;;;;;;;;;;4992925;28;21466;-92
2021/08/24 14:39:58;;;;;;;8.88;2.90;;;;;;;;;;4990466;28;20046;-92
2021/08/24 14:42:50;;;;;;;10.85;3.25;;;;;;;;;;5012808;28;20072;-91
2021/08/24 14:45:28;;;;;;;4.45;2.40;;;;;;;;;;5003770;28;20057;-92
2021/08/24 14:47:54;;;;;;;7.28;2.80;;;;;;;;;;4991728;28;20038;-91
2021/08/24 14:50:35;;;;;;;4.38;2.45;;;;;;;;;;4986678;28;20095;-91
2021/08/24 14:53:02;;;;;;;5.13;2.72;;;;;;;;;;4987970;28;20572;-92
2021/08/24 14:55:35;;;;;;;3.75;2.30;;;;;;;;;;4984776;28;20141;-91